createdAt,value
2022-07-29T00:00:37.981Z,26.00
2022-07-29T00:03:06.714Z,26.00
2022-07-29T00:05:35.307Z,25.90
2022-07-29T00:08:03.793Z,25.80
2022-07-29T00:10:32.352Z,25.80
2022-07-29T00:13:00.882Z,25.80
2022-07-29T00:15:30.898Z,25.90
2022-07-29T00:17:59.383Z,25.90
2022-07-29T00:20:27.883Z,25.80
2022-07-29T00:22:56.449Z,25.80
2022-07-29T00:25:25.138Z,25.80
2022-07-29T00:27:53.580Z,25.70
2022-07-29T00:30:22.216Z,25.70
2022-07-29T00:32:52.135Z,25.60
2022-07-29T00:35:38.147Z,25.60
2022-07-29T00:38:06.687Z,25.60
2022-07-29T00:40:35.183Z,25.50
2022-07-29T00:43:04.818Z,25.50
2022-07-29T00:45:33.535Z,25.40
2022-07-29T00:48:04.381Z,25.40
2022-07-29T00:50:33.746Z,25.30
2022-07-29T00:53:03.203Z,25.30
2022-07-29T00:55:32.149Z,25.20
2022-07-29T00:58:01.512Z,25.20
2022-07-29T01:00:31.335Z,25.20
2022-07-29T01:02:59.971Z,25.20
2022-07-29T01:05:50.913Z,25.30
2022-07-29T01:08:20.751Z,25.30
2022-07-29T01:10:49.933Z,25.30
2022-07-29T01:13:19.471Z,25.30
2022-07-29T01:15:54.008Z,25.30
2022-07-29T01:18:30.454Z,25.20
2022-07-29T01:21:31.589Z,25.10
2022-07-29T01:24:17.536Z,25.20
2022-07-29T01:26:51.331Z,25.20
2022-07-29T01:29:31.008Z,25.10
2022-07-29T01:32:22.551Z,25.10
2022-07-29T01:35:00.716Z,25.10
2022-07-29T01:37:35.062Z,25.10
2022-07-29T01:40:05.580Z,25.00
2022-07-29T01:42:38.899Z,25.00
2022-07-29T01:45:16.238Z,25.00
2022-07-29T01:47:56.586Z,25.00
2022-07-29T01:50:31.674Z,25.00
2022-07-29T01:53:02.832Z,25.00
2022-07-29T01:55:34.497Z,25.10
2022-07-29T01:58:05.273Z,25.00
2022-07-29T02:00:36.869Z,25.00
2022-07-29T02:03:09.675Z,25.00
2022-07-29T02:05:40.077Z,25.00
2022-07-29T02:08:10.453Z,24.90
2022-07-29T02:10:40.729Z,24.90
2022-07-29T02:13:11.880Z,24.90
2022-07-29T02:15:43.466Z,24.90
2022-07-29T02:18:17.922Z,24.90
2022-07-29T02:20:49.859Z,24.90
2022-07-29T02:23:21.654Z,24.90
2022-07-29T02:25:51.431Z,24.90
2022-07-29T02:28:22.726Z,24.90
2022-07-29T02:30:55.602Z,24.80
2022-07-29T02:33:25.990Z,24.70
2022-07-29T02:35:55.224Z,24.70
2022-07-29T02:38:43.577Z,24.60
2022-07-29T02:41:15.729Z,24.60
2022-07-29T02:43:45.783Z,24.60
2022-07-29T02:46:28.767Z,24.60
2022-07-29T02:49:04.276Z,24.50
2022-07-29T02:51:44.539Z,24.50
2022-07-29T02:54:22.460Z,24.50
2022-07-29T02:56:56.485Z,24.50
2022-07-29T02:59:29.238Z,24.50
2022-07-29T03:02:01.246Z,24.50
2022-07-29T03:04:30.598Z,24.50
2022-07-29T03:07:01.530Z,24.40
2022-07-29T03:09:31.084Z,24.40
2022-07-29T03:11:59.840Z,24.40
2022-07-29T03:14:29.279Z,24.40
2022-07-29T03:16:59.570Z,24.40
2022-07-29T03:19:29.373Z,24.30
2022-07-29T03:21:59.363Z,24.30
2022-07-29T03:24:32.751Z,24.30
2022-07-29T03:27:02.431Z,24.30
2022-07-29T03:29:33.576Z,24.30
2022-07-29T03:32:07.994Z,24.40
2022-07-29T03:34:39.142Z,24.40
2022-07-29T03:37:08.597Z,24.40
2022-07-29T03:39:41.947Z,24.40
2022-07-29T03:42:15.217Z,24.40
2022-07-29T03:44:46.004Z,24.30
2022-07-29T03:47:17.156Z,24.20
2022-07-29T03:49:48.768Z,24.20
2022-07-29T03:52:17.638Z,24.20
2022-07-29T03:54:46.346Z,24.20
2022-07-29T03:57:17.072Z,24.10
2022-07-29T03:59:46.318Z,24.20
2022-07-29T04:02:20.171Z,24.20
2022-07-29T04:04:51.840Z,24.20
2022-07-29T04:07:20.450Z,24.20
2022-07-29T04:09:49.013Z,24.30
2022-07-29T04:12:17.499Z,24.30
2022-07-29T04:14:46.072Z,24.30
2022-07-29T04:17:15.963Z,24.30
2022-07-29T04:19:44.476Z,24.40
2022-07-29T04:22:12.932Z,24.40
2022-07-29T04:24:44.318Z,24.40
2022-07-29T04:27:13.214Z,24.50
2022-07-29T04:29:56.225Z,24.50
2022-07-29T04:32:27.604Z,24.50
2022-07-29T04:34:56.096Z,24.60
2022-07-29T04:37:24.675Z,24.60
2022-07-29T04:39:53.207Z,24.70
2022-07-29T04:42:27.608Z,24.70
2022-07-29T04:44:57.796Z,24.60
2022-07-29T04:47:31.318Z,24.60
2022-07-29T04:49:59.848Z,24.70
2022-07-29T04:52:28.537Z,24.70
2022-07-29T04:54:57.011Z,24.70
2022-07-29T04:57:26.312Z,24.80
2022-07-29T04:59:55.330Z,24.80
2022-07-29T05:02:24.093Z,24.80
2022-07-29T05:04:54.083Z,24.80
2022-07-29T05:07:22.642Z,24.90
2022-07-29T05:09:51.130Z,25.00
2022-07-29T05:12:19.702Z,25.10
2022-07-29T05:14:48.132Z,25.10
2022-07-29T05:17:16.666Z,25.20
2022-07-29T05:19:45.200Z,25.30
2022-07-29T05:22:15.235Z,25.40
2022-07-29T05:24:43.705Z,25.50
2022-07-29T05:27:12.269Z,25.50
2022-07-29T05:29:43.907Z,25.70
2022-07-29T05:32:14.715Z,25.80
2022-07-29T05:34:51.439Z,25.90
2022-07-29T05:37:22.091Z,26.00
2022-07-29T05:39:56.602Z,26.10
2022-07-29T05:42:26.047Z,26.20
2022-07-29T05:44:54.569Z,26.60
2022-07-29T05:47:23.272Z,27.10
2022-07-29T05:49:52.623Z,27.10
2022-07-29T05:52:23.344Z,27.20
2022-07-29T05:54:52.942Z,27.20
2022-07-29T05:57:22.937Z,27.10
2022-07-29T05:59:52.799Z,27.20
2022-07-29T06:02:21.494Z,27.20
2022-07-29T06:04:50.501Z,27.20
2022-07-29T06:07:19.014Z,27.30
2022-07-29T06:09:48.932Z,27.30
2022-07-29T06:12:17.492Z,27.30
2022-07-29T06:14:46.174Z,27.40
2022-07-29T06:17:18.901Z,27.40
2022-07-29T06:19:47.412Z,27.60
2022-07-29T06:22:18.291Z,27.80
2022-07-29T06:24:48.184Z,27.90
2022-07-29T06:27:17.343Z,28.10
2022-07-29T06:29:45.858Z,28.20
2022-07-29T06:32:15.119Z,28.40
2022-07-29T06:34:43.671Z,28.40
2022-07-29T06:37:18.723Z,28.50
2022-07-29T06:39:49.196Z,28.70
2022-07-29T06:42:17.702Z,28.70
2022-07-29T06:44:46.182Z,28.80
2022-07-29T06:47:15.006Z,28.90
2022-07-29T06:49:43.570Z,29.00
2022-07-29T06:52:12.050Z,29.10
2022-07-29T06:54:40.955Z,29.20
2022-07-29T06:57:10.841Z,29.40
2022-07-29T06:59:39.488Z,29.50
2022-07-29T07:02:08.011Z,29.60
2022-07-29T07:04:36.526Z,29.60
2022-07-29T07:07:05.013Z,29.80
2022-07-29T07:09:40.016Z,29.80
2022-07-29T07:12:11.159Z,29.80
2022-07-29T07:14:40.799Z,29.80
2022-07-29T07:17:09.541Z,30.00
2022-07-29T07:19:38.096Z,30.10
2022-07-29T07:22:06.593Z,30.20
2022-07-29T07:24:36.860Z,30.20
2022-07-29T07:27:10.298Z,30.10
2022-07-29T07:29:44.246Z,30.20
2022-07-29T07:32:14.348Z,30.30
2022-07-29T07:34:42.999Z,30.40
2022-07-29T07:37:11.503Z,30.60
2022-07-29T07:39:40.029Z,30.70
2022-07-29T07:42:08.649Z,30.70
2022-07-29T07:44:57.267Z,30.80
2022-07-29T07:47:28.049Z,30.90
2022-07-29T07:49:57.224Z,30.90
2022-07-29T07:52:25.795Z,31.10
2022-07-29T07:54:54.315Z,31.10
2022-07-29T07:57:22.890Z,31.30
2022-07-29T07:59:52.745Z,31.30
2022-07-29T08:02:21.349Z,31.40
2022-07-29T08:04:49.846Z,31.40
2022-07-29T08:07:18.435Z,31.50
2022-07-29T08:09:46.997Z,31.50
2022-07-29T08:12:15.528Z,31.50
2022-07-29T08:14:44.014Z,31.50
2022-07-29T08:17:13.855Z,31.60
2022-07-29T08:19:42.341Z,31.60
2022-07-29T08:22:11.065Z,31.60
2022-07-29T08:24:45.302Z,31.50
2022-07-29T08:27:40.860Z,31.60
2022-07-29T08:30:02.998Z,31.70
2022-07-29T08:32:52.533Z,31.90
2022-07-29T08:35:21.859Z,32.10
2022-07-29T08:37:50.448Z,32.20
2022-07-29T08:40:19.090Z,32.20
2022-07-29T08:42:47.743Z,32.20
2022-07-29T08:45:17.072Z,32.30
2022-07-29T08:47:47.578Z,32.40
2022-07-29T08:50:16.144Z,32.50
2022-07-29T08:52:45.230Z,32.60
2022-07-29T08:55:14.644Z,32.60
2022-07-29T08:57:52.007Z,32.60
2022-07-29T09:00:24.915Z,32.60
2022-07-29T09:03:00.237Z,32.60
2022-07-29T09:05:29.751Z,32.70
2022-07-29T09:07:58.433Z,32.80
2022-07-29T09:10:27.209Z,32.80
2022-07-29T09:12:57.118Z,32.60
2022-07-29T09:15:26.730Z,32.50
2022-07-29T09:17:57.746Z,32.60
2022-07-29T09:20:26.805Z,32.70
2022-07-29T09:22:55.961Z,32.70
2022-07-29T09:25:36.982Z,32.90
2022-07-29T09:28:10.016Z,32.80
2022-07-29T09:30:41.574Z,33.00
2022-07-29T09:33:11.510Z,33.00
2022-07-29T09:35:40.419Z,33.00
2022-07-29T09:38:15.684Z,33.10
2022-07-29T09:40:57.816Z,33.20
2022-07-29T09:43:31.610Z,33.20
2022-07-29T09:46:13.061Z,33.10
2022-07-29T09:48:43.138Z,33.20
2022-07-29T09:51:23.004Z,33.20
2022-07-29T09:53:55.638Z,33.20
2022-07-29T09:56:40.855Z,33.20
2022-07-29T09:59:10.250Z,33.30
2022-07-29T10:01:38.737Z,33.40
2022-07-29T10:04:08.779Z,33.50
2022-07-29T10:06:37.352Z,33.30
2022-07-29T10:09:12.410Z,33.30
2022-07-29T10:11:56.954Z,33.40
2022-07-29T10:14:25.966Z,33.60
2022-07-29T10:16:55.036Z,33.50
2022-07-29T10:19:25.495Z,33.50
2022-07-29T10:21:58.021Z,33.60
2022-07-29T10:24:28.394Z,33.60
2022-07-29T10:26:58.107Z,33.50
2022-07-29T10:29:26.967Z,33.50
2022-07-29T10:32:17.560Z,33.60
2022-07-29T10:35:02.559Z,33.80
2022-07-29T10:37:45.709Z,34.00
2022-07-29T10:40:42.276Z,34.00
2022-07-29T10:43:21.817Z,34.10
2022-07-29T10:45:52.077Z,34.10
2022-07-29T10:48:21.308Z,34.20
2022-07-29T10:50:58.277Z,34.30
2022-07-29T10:53:47.273Z,34.40
2022-07-29T10:56:27.418Z,34.30
2022-07-29T10:59:32.350Z,34.30
2022-07-29T11:02:42.100Z,34.20
2022-07-29T11:05:14.294Z,34.50
2022-07-29T11:08:26.112Z,34.50
2022-07-29T11:11:11.049Z,34.70
2022-07-29T11:13:51.233Z,34.80
2022-07-29T11:16:25.167Z,34.70
2022-07-29T11:19:29.944Z,34.70
2022-07-29T11:21:59.959Z,34.60
2022-07-29T11:24:32.400Z,34.60
2022-07-29T11:27:20.040Z,34.70
2022-07-29T11:29:54.370Z,34.60
2022-07-29T11:32:25.012Z,34.70
2022-07-29T11:35:18.997Z,34.50
2022-07-29T11:40:38.872Z,34.50
2022-07-29T11:43:11.301Z,34.70
2022-07-29T11:45:48.567Z,34.70
2022-07-29T11:48:29.147Z,34.90
2022-07-29T11:51:00.261Z,34.90
2022-07-29T11:53:32.803Z,34.70
2022-07-29T11:56:03.893Z,34.50
2022-07-29T11:58:33.822Z,34.30
2022-07-29T12:01:05.008Z,34.20
2022-07-29T12:03:36.869Z,34.20
2022-07-29T12:06:14.109Z,34.30
2022-07-29T12:08:45.284Z,34.30
2022-07-29T12:11:23.262Z,34.40
2022-07-29T12:13:53.067Z,34.50
2022-07-29T12:16:25.470Z,34.60
2022-07-29T12:18:59.919Z,34.70
2022-07-29T12:21:29.320Z,34.90
2022-07-29T12:24:05.476Z,34.90
2022-07-29T12:26:51.023Z,34.80
2022-07-29T12:29:33.793Z,34.60
2022-07-29T12:32:05.252Z,34.50
2022-07-29T12:34:35.026Z,34.50
2022-07-29T12:37:04.247Z,34.50
2022-07-29T12:39:32.940Z,34.60
2022-07-29T12:42:14.798Z,34.50
2022-07-29T12:44:47.592Z,34.30
2022-07-29T12:47:16.220Z,34.30
2022-07-29T12:49:44.700Z,34.30
2022-07-29T12:52:37.526Z,34.70
2022-07-29T12:55:06.914Z,35.10
2022-07-29T12:57:47.554Z,35.20
2022-07-29T13:00:17.519Z,35.30
2022-07-29T13:02:46.362Z,35.30
2022-07-29T13:05:14.920Z,35.30
2022-07-29T13:07:55.724Z,35.30
2022-07-29T13:10:27.077Z,35.70
2022-07-29T13:13:09.074Z,36.20
2022-07-29T13:15:39.010Z,37.10
2022-07-29T13:18:28.013Z,37.60
2022-07-29T13:20:56.750Z,37.70
2022-07-29T13:23:25.272Z,38.40
2022-07-29T13:25:54.739Z,39.00
2022-07-29T13:28:25.179Z,39.50
2022-07-29T13:30:53.694Z,40.00
2022-07-29T13:33:22.169Z,40.30
2022-07-29T13:35:50.691Z,40.90
2022-07-29T13:38:19.302Z,40.40
2022-07-29T13:40:47.860Z,40.60
2022-07-29T13:43:16.493Z,41.00
2022-07-29T13:45:46.392Z,40.00
2022-07-29T13:48:14.923Z,39.80
2022-07-29T13:50:43.457Z,40.00
2022-07-29T13:53:17.738Z,40.70
2022-07-29T13:55:47.319Z,40.20
2022-07-29T13:58:16.993Z,40.90
2022-07-29T14:00:47.710Z,41.40
2022-07-29T14:03:16.169Z,40.40
2022-07-29T14:05:44.910Z,40.10
2022-07-29T14:08:13.868Z,39.80
2022-07-29T14:10:42.319Z,39.80
2022-07-29T14:13:24.346Z,39.70
2022-07-29T14:15:55.804Z,40.80
2022-07-29T14:18:24.266Z,40.80
2022-07-29T14:20:52.970Z,40.30
2022-07-29T14:23:21.828Z,41.00
2022-07-29T14:25:50.704Z,40.50
2022-07-29T14:28:19.754Z,41.30
2022-07-29T14:30:48.360Z,40.70
2022-07-29T14:33:18.301Z,40.20
2022-07-29T14:35:47.521Z,40.60
2022-07-29T14:38:16.065Z,40.80
2022-07-29T14:40:44.707Z,40.80
2022-07-29T14:43:13.188Z,40.10
2022-07-29T14:45:41.797Z,40.70
2022-07-29T14:48:10.258Z,41.20
2022-07-29T14:50:40.418Z,41.30
2022-07-29T14:53:09.044Z,41.50
2022-07-29T14:55:37.617Z,41.80
2022-07-29T14:58:12.115Z,40.70
2022-07-29T15:00:43.344Z,39.30
2022-07-29T15:03:11.894Z,39.90
2022-07-29T15:05:42.110Z,39.80
2022-07-29T15:08:10.601Z,40.60
2022-07-29T15:10:39.066Z,41.30
2022-07-29T15:13:07.541Z,41.90
2022-07-29T15:15:35.978Z,40.50
2022-07-29T15:18:04.525Z,40.70
2022-07-29T15:20:33.143Z,41.40
2022-07-29T15:23:03.132Z,41.80
2022-07-29T15:25:31.687Z,41.60
2022-07-29T15:28:03.255Z,41.20
2022-07-29T15:30:34.628Z,41.60
2022-07-29T15:33:04.744Z,42.00
2022-07-29T15:35:33.408Z,42.40
2022-07-29T15:38:10.691Z,43.00
2022-07-29T15:40:41.258Z,43.50
2022-07-29T15:43:09.961Z,42.50
2022-07-29T15:45:40.419Z,42.60
2022-07-29T15:48:13.282Z,43.40
2022-07-29T15:50:47.031Z,43.90
2022-07-29T15:53:17.159Z,43.70
2022-07-29T15:55:46.057Z,44.00
2022-07-29T15:58:14.593Z,43.70
2022-07-29T16:00:43.094Z,43.40
2022-07-29T16:03:11.585Z,43.40
2022-07-29T16:05:40.087Z,42.80
2022-07-29T16:08:08.593Z,43.50
2022-07-29T16:10:38.431Z,43.80
2022-07-29T16:13:06.962Z,44.40
2022-07-29T16:15:35.545Z,44.70
2022-07-29T16:18:04.031Z,45.10
2022-07-29T16:20:36.506Z,44.80
2022-07-29T16:23:05.550Z,43.50
2022-07-29T16:25:58.637Z,43.20
2022-07-29T16:28:24.005Z,43.90
2022-07-29T16:30:52.452Z,43.80
2022-07-29T16:33:20.926Z,44.10
2022-07-29T16:35:49.428Z,43.60
2022-07-29T16:38:17.982Z,44.00
2022-07-29T16:40:46.489Z,44.20
2022-07-29T16:43:15.023Z,43.70
2022-07-29T16:45:46.153Z,43.80
2022-07-29T16:48:15.241Z,44.00
2022-07-29T16:50:46.750Z,43.80
2022-07-29T16:53:15.214Z,43.50
2022-07-29T16:55:43.784Z,43.00
2022-07-29T16:58:13.773Z,42.80
2022-07-29T17:00:42.529Z,42.60
2022-07-29T17:03:13.448Z,43.00
2022-07-29T17:05:52.803Z,42.90
2022-07-29T17:08:23.159Z,42.30
2022-07-29T17:10:51.807Z,41.10
2022-07-29T17:13:21.364Z,41.20
2022-07-29T17:15:49.931Z,41.90
2022-07-29T17:18:19.840Z,41.40
2022-07-29T17:20:48.269Z,40.70
2022-07-29T17:23:16.765Z,40.50
2022-07-29T17:25:45.195Z,40.40
2022-07-29T17:28:13.719Z,40.00
2022-07-29T17:30:42.239Z,39.30
2022-07-29T17:33:10.769Z,39.00
2022-07-29T17:35:57.978Z,38.20
2022-07-29T17:38:27.359Z,36.90
2022-07-29T17:40:55.834Z,35.70
2022-07-29T17:43:24.337Z,34.90
2022-07-29T17:45:55.865Z,34.30
2022-07-29T17:48:28.135Z,33.70
2022-07-29T17:50:58.122Z,33.40
2022-07-29T17:53:26.660Z,33.00
2022-07-29T17:55:56.426Z,32.60
2022-07-29T17:58:25.045Z,32.30
2022-07-29T18:00:53.726Z,31.70
2022-07-29T18:03:22.305Z,31.50
2022-07-29T18:05:51.089Z,31.50
2022-07-29T18:08:22.618Z,31.60
2022-07-29T18:10:51.756Z,31.40
2022-07-29T18:13:20.362Z,31.40
2022-07-29T18:15:49.198Z,31.20
2022-07-29T18:18:18.400Z,31.00
2022-07-29T18:20:47.149Z,30.70
2022-07-29T18:23:16.864Z,30.70
2022-07-29T18:25:46.802Z,30.70
2022-07-29T18:28:15.223Z,30.70
2022-07-29T18:30:45.058Z,30.70
2022-07-29T18:33:24.287Z,30.60
2022-07-29T18:36:04.220Z,30.50
2022-07-29T18:38:39.819Z,30.50
2022-07-29T18:41:09.710Z,30.50
2022-07-29T18:43:38.293Z,30.40
2022-07-29T18:46:06.871Z,30.50
2022-07-29T18:48:35.700Z,30.50
2022-07-29T18:51:09.332Z,30.40
2022-07-29T18:53:38.419Z,30.40
2022-07-29T18:56:06.998Z,30.50
2022-07-29T18:58:38.298Z,30.40
2022-07-29T19:01:07.073Z,30.40
2022-07-29T19:03:35.637Z,30.20
2022-07-29T19:06:05.600Z,30.20
2022-07-29T19:08:37.825Z,30.10
2022-07-29T19:11:06.910Z,30.10
2022-07-29T19:13:37.512Z,30.00
2022-07-29T19:16:06.683Z,29.80
2022-07-29T19:18:35.608Z,29.70
2022-07-29T19:21:04.149Z,29.60
2022-07-29T19:24:00.660Z,29.40
2022-07-29T19:26:22.359Z,29.30
2022-07-29T19:28:52.403Z,29.10
2022-07-29T19:31:20.965Z,29.00
2022-07-29T19:33:49.451Z,28.90
2022-07-29T19:36:17.930Z,28.80
2022-07-29T19:38:46.379Z,28.90
2022-07-29T19:41:17.055Z,28.80
2022-07-29T19:43:50.452Z,28.70
2022-07-29T19:46:22.940Z,28.70
2022-07-29T19:48:52.984Z,28.60
2022-07-29T19:51:21.443Z,28.50
2022-07-29T19:53:49.983Z,28.30
2022-07-29T19:56:18.485Z,28.30
2022-07-29T19:58:47.952Z,28.30
2022-07-29T20:01:17.068Z,28.30
2022-07-29T20:03:47.101Z,28.30
2022-07-29T20:06:15.575Z,28.40
2022-07-29T20:08:45.259Z,28.40
2022-07-29T20:11:13.820Z,28.30
2022-07-29T20:13:42.253Z,28.30
2022-07-29T20:16:10.829Z,28.20
2022-07-29T20:18:39.424Z,28.30
2022-07-29T20:21:09.388Z,28.30
2022-07-29T20:23:37.851Z,28.30
2022-07-29T20:26:09.513Z,28.30
2022-07-29T20:28:40.301Z,28.40
2022-07-29T20:31:09.160Z,28.40
2022-07-29T20:33:37.859Z,28.30
2022-07-29T20:36:08.371Z,28.20
2022-07-29T20:38:36.941Z,28.10
2022-07-29T20:41:05.937Z,28.00
2022-07-29T20:43:38.933Z,28.00
2022-07-29T20:46:07.923Z,27.80
2022-07-29T20:48:36.433Z,27.80
2022-07-29T20:51:04.936Z,27.90
2022-07-29T20:53:34.899Z,28.00
2022-07-29T20:56:03.378Z,27.90
2022-07-29T20:58:32.734Z,28.00
2022-07-29T21:01:01.620Z,28.00
2022-07-29T21:03:30.095Z,28.10
2022-07-29T21:05:58.715Z,28.00
2022-07-29T21:08:27.621Z,28.00
2022-07-29T21:10:57.777Z,28.00
2022-07-29T21:13:26.626Z,27.90
2022-07-29T21:15:59.070Z,27.80
2022-07-29T21:18:32.569Z,27.60
2022-07-29T21:21:02.271Z,27.60
2022-07-29T21:23:31.276Z,27.60
2022-07-29T21:26:01.232Z,27.60
2022-07-29T21:28:30.518Z,27.60
2022-07-29T21:31:01.061Z,27.60
2022-07-29T21:33:31.007Z,27.70
2022-07-29T21:36:15.355Z,27.70
2022-07-29T21:38:48.075Z,27.70
2022-07-29T21:41:17.939Z,27.60
2022-07-29T21:43:46.408Z,27.50
2022-07-29T21:46:17.003Z,27.30
2022-07-29T21:48:45.586Z,27.30
2022-07-29T21:51:14.129Z,27.20
2022-07-29T21:53:43.528Z,27.10
2022-07-29T21:56:14.545Z,27.00
2022-07-29T21:58:45.114Z,26.90
2022-07-29T22:01:13.606Z,26.70
2022-07-29T22:03:42.065Z,26.70
2022-07-29T22:06:11.376Z,26.60
2022-07-29T22:08:48.022Z,26.60
2022-07-29T22:11:16.844Z,26.60
2022-07-29T22:13:46.690Z,26.50
2022-07-29T22:16:15.361Z,26.60
2022-07-29T22:18:46.956Z,26.50
2022-07-29T22:21:15.968Z,26.50
2022-07-29T22:23:44.650Z,26.40
2022-07-29T22:26:13.217Z,26.30
2022-07-29T22:28:41.634Z,26.40
2022-07-29T22:31:12.281Z,26.30
2022-07-29T22:33:40.884Z,26.30
2022-07-29T22:36:09.598Z,26.10
2022-07-29T22:38:38.093Z,26.10
2022-07-29T22:41:06.551Z,26.10
2022-07-29T22:43:35.183Z,25.80
2022-07-29T22:46:03.749Z,25.80
2022-07-29T22:48:33.872Z,25.80
2022-07-29T22:51:02.385Z,25.90
2022-07-29T22:53:30.864Z,25.90
2022-07-29T22:55:59.408Z,25.90
2022-07-29T22:58:27.932Z,25.90
2022-07-29T23:00:56.428Z,25.90
2022-07-29T23:03:25.017Z,25.90
2022-07-29T23:05:54.944Z,25.80
2022-07-29T23:08:23.377Z,25.80
2022-07-29T23:10:51.834Z,25.80
2022-07-29T23:13:20.290Z,25.80
2022-07-29T23:15:48.742Z,25.80
2022-07-29T23:18:17.184Z,25.80
2022-07-29T23:20:46.090Z,25.80
2022-07-29T23:23:15.929Z,25.80
2022-07-29T23:25:44.689Z,25.80
2022-07-29T23:28:14.391Z,25.80
2022-07-29T23:30:42.920Z,25.80
2022-07-29T23:33:11.482Z,25.80
2022-07-29T23:35:39.947Z,25.80
2022-07-29T23:38:08.418Z,25.80
2022-07-29T23:40:38.383Z,25.80
2022-07-29T23:43:08.877Z,25.70
2022-07-29T23:45:42.796Z,25.70
2022-07-29T23:48:14.635Z,25.70
2022-07-29T23:50:43.301Z,25.60
2022-07-29T23:53:12.324Z,25.60
2022-07-29T23:55:42.231Z,25.60
2022-07-29T23:58:10.780Z,25.60
